createdAt,value
2022-07-25T05:07:35.153Z,23.25
2022-07-25T05:10:06.131Z,23.25
2022-07-25T05:12:34.827Z,23.28
2022-07-25T05:15:03.553Z,23.32
2022-07-25T05:17:32.248Z,23.40
2022-07-25T05:20:00.830Z,23.42
2022-07-25T05:22:29.416Z,23.46
2022-07-25T05:24:58.531Z,23.60
2022-07-25T05:27:28.425Z,23.66
2022-07-25T05:29:57.148Z,23.67
2022-07-25T05:32:25.945Z,23.77
2022-07-25T05:34:54.577Z,23.74
2022-07-25T05:37:23.176Z,23.76
2022-07-25T05:39:51.736Z,23.72
2022-07-25T05:42:20.389Z,23.67
2022-07-25T05:44:50.343Z,23.68
2022-07-25T05:47:19.139Z,23.67
2022-07-25T05:49:47.752Z,23.65
2022-07-25T05:52:16.422Z,23.64
2022-07-25T05:54:44.943Z,23.80
2022-07-25T05:57:13.493Z,23.89
2022-07-25T05:59:42.087Z,23.81
2022-07-25T06:02:12.291Z,23.80
2022-07-25T06:04:40.932Z,23.86
2022-07-25T06:07:09.909Z,24.05
2022-07-25T06:09:40.481Z,24.18
2022-07-25T06:12:09.117Z,24.22
2022-07-25T06:14:38.457Z,24.21
2022-07-25T06:17:06.971Z,24.27
2022-07-25T06:19:36.900Z,24.24
2022-07-25T06:22:05.878Z,24.17
2022-07-25T06:24:34.518Z,24.22
2022-07-25T06:27:03.194Z,24.26
2022-07-25T06:29:31.762Z,24.24
2022-07-25T06:32:00.709Z,24.29
2022-07-25T06:34:29.400Z,24.39
2022-07-25T06:36:59.367Z,24.52
2022-07-25T06:39:28.621Z,24.51
2022-07-25T06:41:58.443Z,24.67
2022-07-25T06:44:33.845Z,24.92
2022-07-25T06:47:03.783Z,25.63
2022-07-25T06:49:32.492Z,26.28
2022-07-25T06:52:03.397Z,26.65
2022-07-25T06:54:32.025Z,26.64
2022-07-25T06:57:00.658Z,26.80
2022-07-25T06:59:29.687Z,26.90
2022-07-25T07:01:58.197Z,26.71
2022-07-25T07:04:26.966Z,26.67
2022-07-25T07:06:55.507Z,26.71
2022-07-25T07:09:25.658Z,26.73
2022-07-25T07:11:54.233Z,26.66
2022-07-25T07:14:22.872Z,26.74
2022-07-25T07:16:51.408Z,26.83
2022-07-25T07:19:19.979Z,26.55
2022-07-25T07:21:49.963Z,26.62
2022-07-25T07:24:24.194Z,26.59
2022-07-25T07:26:54.914Z,26.38
2022-07-25T07:29:23.375Z,26.43
2022-07-25T07:31:51.919Z,26.42
2022-07-25T07:34:20.839Z,26.15
2022-07-25T07:36:49.393Z,26.24
2022-07-25T07:39:17.946Z,26.25
2022-07-25T07:41:46.510Z,26.04
2022-07-25T07:44:18.018Z,25.83
2022-07-25T07:46:47.451Z,25.62
2022-07-25T07:49:16.139Z,25.61
2022-07-25T07:51:44.759Z,25.57
2022-07-25T07:54:31.499Z,25.39
2022-07-25T07:57:00.052Z,25.44
2022-07-25T07:59:30.017Z,25.48
2022-07-25T08:01:58.660Z,25.44
2022-07-25T08:04:27.285Z,25.62
2022-07-25T08:06:55.858Z,26.00
2022-07-25T08:09:25.754Z,26.15
2022-07-25T08:11:54.356Z,26.37
2022-07-25T08:14:23.693Z,26.07
2022-07-25T08:16:54.396Z,26.13
2022-07-25T08:19:23.914Z,27.33
2022-07-25T08:21:52.467Z,28.06
2022-07-25T08:24:21.000Z,29.01
2022-07-25T08:26:49.580Z,29.92
2022-07-25T08:29:20.569Z,28.88
2022-07-25T08:31:50.708Z,30.04
2022-07-25T08:34:22.755Z,30.63
2022-07-25T08:36:51.706Z,30.17
2022-07-25T08:39:20.326Z,29.80
2022-07-25T08:41:49.062Z,29.18
2022-07-25T08:44:21.343Z,30.13
2022-07-25T08:46:50.847Z,29.79
2022-07-25T08:49:21.453Z,30.67
2022-07-25T08:51:51.650Z,30.85
2022-07-25T08:54:20.844Z,31.72
2022-07-25T08:56:51.762Z,30.52
2022-07-25T08:59:20.385Z,29.78
2022-07-25T09:01:49.067Z,29.01
2022-07-25T09:04:18.100Z,28.67
2022-07-25T09:06:52.544Z,28.18
2022-07-25T09:09:30.187Z,27.53
2022-07-25T09:11:59.166Z,26.68
2022-07-25T09:14:29.645Z,26.24
2022-07-25T09:16:58.948Z,25.74
2022-07-25T09:19:27.557Z,25.48
2022-07-25T09:22:02.776Z,25.34
2022-07-25T09:24:33.351Z,25.15
2022-07-25T09:27:08.485Z,25.29
2022-07-25T09:29:39.421Z,25.04
2022-07-25T09:32:16.667Z,24.97
2022-07-25T09:34:47.829Z,24.68
2022-07-25T09:37:19.984Z,24.49
2022-07-25T09:39:50.059Z,24.42
2022-07-25T09:42:20.762Z,24.34
2022-07-25T09:45:04.910Z,24.17
2022-07-25T09:47:35.433Z,24.20
2022-07-25T09:50:05.246Z,24.06
2022-07-25T09:52:36.732Z,24.26
2022-07-25T09:55:09.245Z,24.45
2022-07-25T09:57:38.034Z,24.77
2022-07-25T10:00:09.561Z,24.95
2022-07-25T10:02:48.913Z,25.14
2022-07-25T10:05:26.819Z,26.85
2022-07-25T10:07:57.707Z,28.04
2022-07-25T10:10:28.539Z,28.81
2022-07-25T10:13:06.390Z,29.20
2022-07-25T10:15:43.484Z,30.62
2022-07-25T10:18:14.267Z,30.92
2022-07-25T10:20:45.850Z,29.91
2022-07-25T10:23:22.322Z,29.48
2022-07-25T10:26:01.830Z,29.30
2022-07-25T10:28:39.347Z,30.14
2022-07-25T10:31:24.195Z,31.75
2022-07-25T10:33:57.276Z,32.87
2022-07-25T10:36:28.835Z,33.88
2022-07-25T10:39:01.967Z,33.69
2022-07-25T10:41:31.068Z,34.06
2022-07-25T10:44:03.906Z,34.52
2022-07-25T10:46:36.673Z,35.14
2022-07-25T10:49:08.717Z,35.50
2022-07-25T10:51:41.826Z,35.63
2022-07-25T10:54:16.931Z,35.63
2022-07-25T10:56:57.061Z,36.03
2022-07-25T10:59:30.950Z,35.12
2022-07-25T11:01:59.653Z,34.44
2022-07-25T11:04:28.836Z,34.36
2022-07-25T11:06:57.985Z,34.16
2022-07-25T11:09:29.472Z,34.70
2022-07-25T11:11:59.997Z,36.20
2022-07-25T11:14:33.066Z,35.51
2022-07-25T11:17:13.534Z,35.55
2022-07-25T11:19:43.372Z,35.10
2022-07-25T11:22:13.219Z,35.51
2022-07-25T11:24:45.888Z,35.31
2022-07-25T11:27:22.276Z,36.26
2022-07-25T11:29:51.120Z,36.86
2022-07-25T11:32:20.394Z,37.20
2022-07-25T11:34:53.206Z,37.39
2022-07-25T11:37:22.301Z,37.42
2022-07-25T11:39:53.014Z,36.71
2022-07-25T11:42:23.001Z,34.54
2022-07-25T11:44:54.700Z,33.08
2022-07-25T11:47:26.923Z,33.95
2022-07-25T11:49:57.744Z,34.66
2022-07-25T11:52:29.792Z,34.30
2022-07-25T11:55:02.884Z,33.28
2022-07-25T11:57:33.432Z,33.10
2022-07-25T12:00:03.506Z,34.50
2022-07-25T12:02:37.833Z,35.26
2022-07-25T12:05:09.213Z,34.82
2022-07-25T12:07:39.505Z,34.10
2022-07-25T12:10:12.303Z,34.36
2022-07-25T12:12:46.079Z,35.08
2022-07-25T12:15:15.096Z,34.83
2022-07-25T12:17:44.590Z,32.50
2022-07-25T12:20:16.800Z,31.81
2022-07-25T12:22:45.666Z,32.82
2022-07-25T12:25:16.273Z,33.35
2022-07-25T12:27:45.150Z,32.54
2022-07-25T12:30:14.987Z,32.53
2022-07-25T12:32:43.962Z,32.06
2022-07-25T12:35:14.429Z,31.54
2022-07-25T12:37:43.434Z,32.00
2022-07-25T12:40:14.336Z,32.10
2022-07-25T12:42:45.034Z,32.37
2022-07-25T12:45:14.766Z,32.29
2022-07-25T12:47:45.181Z,32.54
2022-07-25T12:50:14.513Z,32.16
2022-07-25T12:52:43.805Z,31.24
2022-07-25T12:55:17.037Z,32.06
2022-07-25T12:57:47.900Z,31.68
2022-07-25T13:00:19.969Z,31.21
2022-07-25T13:02:49.469Z,30.66
2022-07-25T13:05:18.189Z,30.17
2022-07-25T13:07:48.906Z,30.06
2022-07-25T13:10:18.575Z,29.98
2022-07-25T13:12:48.726Z,29.79
2022-07-25T13:15:20.540Z,29.50
2022-07-25T13:17:49.229Z,28.99
2022-07-25T13:20:17.905Z,29.09
2022-07-25T13:22:46.536Z,29.24
2022-07-25T13:25:15.212Z,29.89
2022-07-25T13:27:43.922Z,29.52
2022-07-25T13:30:15.493Z,29.77
2022-07-25T13:32:44.167Z,29.20
2022-07-25T13:35:14.541Z,28.98
2022-07-25T13:37:47.047Z,28.30
2022-07-25T13:40:15.784Z,28.18
2022-07-25T13:42:44.444Z,28.34
2022-07-25T13:45:14.569Z,29.51
2022-07-25T13:47:43.160Z,29.77
2022-07-25T13:50:11.760Z,29.66
2022-07-25T13:52:40.393Z,29.36
2022-07-25T13:55:10.447Z,29.43
2022-07-25T13:57:39.118Z,29.30
2022-07-25T14:00:09.052Z,29.36
2022-07-25T14:02:39.228Z,28.88
2022-07-25T14:05:11.342Z,28.40
2022-07-25T15:08:47.668Z,25.34
2022-07-25T15:11:16.886Z,25.27
2022-07-25T15:13:45.567Z,25.68
2022-07-25T15:16:15.077Z,25.74
2022-07-25T15:19:13.323Z,25.67
2022-07-25T15:21:32.964Z,25.66
2022-07-25T15:24:02.959Z,25.70
2022-07-25T15:26:32.331Z,25.62
2022-07-25T15:29:01.150Z,25.49
2022-07-25T15:31:29.860Z,25.30
2022-07-25T15:33:58.870Z,25.18
2022-07-25T15:36:29.722Z,25.06
2022-07-25T15:38:58.565Z,25.29
2022-07-25T15:41:28.586Z,25.40
2022-07-25T15:43:57.204Z,25.39
2022-07-25T15:46:26.658Z,25.24
2022-07-25T15:48:55.303Z,25.12
2022-07-25T15:51:23.932Z,25.28
2022-07-25T15:53:52.553Z,25.24
2022-07-25T15:56:21.199Z,25.06
2022-07-25T15:58:51.271Z,25.16
2022-07-25T16:01:20.137Z,25.16
2022-07-25T16:03:48.947Z,25.19
2022-07-25T16:06:20.633Z,25.16
2022-07-25T16:08:50.150Z,25.10
2022-07-25T16:11:25.945Z,24.93
2022-07-25T16:13:55.942Z,24.89
2022-07-25T16:16:25.718Z,24.79
2022-07-25T16:18:54.428Z,24.70
2022-07-25T16:21:23.440Z,24.43
2022-07-25T16:23:52.441Z,24.29
2022-07-25T16:26:21.183Z,24.14
2022-07-25T16:28:49.806Z,24.15
2022-07-25T16:31:20.383Z,24.23
2022-07-25T16:33:51.866Z,24.12
2022-07-25T16:36:20.839Z,24.35
2022-07-25T16:38:49.597Z,24.54
2022-07-25T16:41:18.242Z,24.69
2022-07-25T16:43:46.999Z,24.64
2022-07-25T16:46:15.774Z,24.55
2022-07-25T16:48:45.858Z,24.50
2022-07-25T16:51:14.600Z,24.62
2022-07-25T16:53:43.482Z,24.77
2022-07-25T16:56:12.176Z,24.71
2022-07-25T16:58:40.963Z,25.02
2022-07-25T17:01:10.058Z,25.01
2022-07-25T17:03:41.966Z,24.79
2022-07-25T17:06:12.399Z,24.56
2022-07-25T17:08:41.297Z,24.49
2022-07-25T17:11:10.080Z,24.20
2022-07-25T17:13:41.925Z,24.37
2022-07-25T17:16:11.392Z,24.19
2022-07-25T17:18:40.266Z,24.31
2022-07-25T17:21:09.463Z,24.34
2022-07-25T17:23:39.433Z,24.20
2022-07-25T17:26:08.044Z,24.15
2022-07-25T17:28:37.171Z,24.29
2022-07-25T17:31:06.300Z,24.16
2022-07-25T17:33:35.016Z,24.24
2022-07-25T17:36:03.857Z,24.36
2022-07-25T17:38:34.991Z,24.15
2022-07-25T17:41:06.250Z,23.99
2022-07-25T17:43:37.030Z,23.98
2022-07-25T17:46:06.469Z,23.87
2022-07-25T17:48:35.274Z,23.76
2022-07-25T17:51:04.269Z,23.63
2022-07-25T17:53:33.343Z,23.48
2022-07-25T17:56:03.138Z,23.29
2022-07-25T17:58:34.226Z,23.03
2022-07-25T18:01:05.911Z,22.91
2022-07-25T18:03:38.744Z,22.87
2022-07-25T18:06:07.476Z,22.83
2022-07-25T18:08:36.193Z,22.64
2022-07-25T18:11:04.852Z,22.62
2022-07-25T18:13:34.984Z,22.54
2022-07-25T18:16:04.054Z,22.45
2022-07-25T18:18:33.110Z,22.45
2022-07-25T18:21:02.417Z,22.31
2022-07-25T18:23:31.019Z,22.30
2022-07-25T18:26:00.185Z,22.28
2022-07-25T18:28:28.948Z,22.23
2022-07-25T18:30:59.130Z,22.14
2022-07-25T18:33:29.287Z,22.13
2022-07-25T18:36:02.959Z,22.08
2022-07-25T18:38:34.427Z,22.08
2022-07-25T18:41:27.427Z,22.04
2022-07-25T18:43:53.928Z,21.93
2022-07-25T18:46:24.491Z,21.88
2022-07-25T18:48:53.731Z,21.77
2022-07-25T18:51:22.984Z,21.70
2022-07-25T18:53:51.726Z,21.66
2022-07-25T18:56:20.493Z,21.69
2022-07-25T18:58:49.108Z,21.68
2022-07-25T19:01:17.831Z,21.59
2022-07-25T19:03:47.932Z,21.46
2022-07-25T19:06:17.081Z,21.32
2022-07-25T19:08:47.799Z,21.18
2022-07-25T19:11:16.448Z,21.09
2022-07-25T19:13:49.990Z,20.95
2022-07-25T19:16:20.737Z,20.78
2022-07-25T19:18:51.086Z,20.63
2022-07-25T19:21:19.736Z,20.64
2022-07-25T19:23:51.179Z,20.50
2022-07-25T19:26:20.489Z,20.46
2022-07-25T19:28:49.265Z,20.37
2022-07-25T19:31:18.037Z,20.16
2022-07-25T19:33:46.957Z,20.07
2022-07-25T19:36:16.995Z,20.03
2022-07-25T19:38:46.407Z,20.04
2022-07-25T19:41:15.500Z,19.95
2022-07-25T19:43:44.232Z,19.80
2022-07-25T19:46:12.940Z,19.75
2022-07-25T19:48:41.662Z,19.67
2022-07-25T19:51:11.012Z,19.61
2022-07-25T19:53:41.037Z,19.52
2022-07-25T19:56:09.861Z,19.47
2022-07-25T19:58:39.740Z,19.38
2022-07-25T20:01:12.377Z,19.28
2022-07-25T20:03:41.244Z,19.18
2022-07-25T20:06:10.715Z,19.09
2022-07-25T20:08:40.876Z,19.01
2022-07-25T20:11:09.947Z,18.90
2022-07-25T20:13:38.537Z,18.90
2022-07-25T20:16:07.558Z,18.91
2022-07-25T20:18:36.489Z,19.01
2022-07-25T20:21:05.394Z,19.16
2022-07-25T20:23:34.096Z,19.25
2022-07-25T20:26:05.277Z,19.31
2022-07-25T20:28:34.068Z,19.26
2022-07-25T20:31:03.233Z,19.39
2022-07-25T20:33:33.489Z,19.42
2022-07-25T20:36:02.844Z,19.42
2022-07-25T20:38:32.318Z,19.43
2022-07-25T20:41:01.811Z,19.40
2022-07-25T20:43:33.514Z,19.45
2022-07-25T20:46:05.070Z,19.43
2022-07-25T20:48:38.051Z,19.38
2022-07-25T20:51:06.920Z,19.45
2022-07-25T20:53:35.680Z,19.41
2022-07-25T20:56:04.653Z,19.41
2022-07-25T20:58:34.640Z,19.46
2022-07-25T21:01:03.479Z,19.52
2022-07-25T21:03:32.199Z,19.45
2022-07-25T21:06:01.512Z,19.43
2022-07-25T21:08:30.135Z,19.44
2022-07-25T21:10:59.127Z,19.43
2022-07-25T21:13:27.818Z,19.40
2022-07-25T21:16:03.010Z,19.47
2022-07-25T21:18:31.601Z,19.34
2022-07-25T21:21:01.023Z,19.30
2022-07-25T21:23:29.722Z,19.27
2022-07-25T21:25:58.579Z,19.26
2022-07-25T21:28:27.438Z,19.26
2022-07-25T21:30:56.019Z,19.26
2022-07-25T21:33:25.982Z,19.25
2022-07-25T21:35:55.305Z,19.17
2022-07-25T21:38:26.313Z,19.12
2022-07-25T21:40:57.517Z,19.14
2022-07-25T21:43:26.126Z,19.11
2022-07-25T21:45:54.769Z,19.02
2022-07-25T21:48:38.882Z,18.91
2022-07-25T21:51:07.925Z,18.78
2022-07-25T21:53:36.975Z,18.70
2022-07-25T21:56:06.622Z,18.54
2022-07-25T21:58:35.709Z,18.50
2022-07-25T22:01:04.467Z,18.43
2022-07-25T22:03:34.496Z,18.39
2022-07-25T22:06:03.396Z,18.42
2022-07-25T22:08:32.040Z,18.44
2022-07-25T22:11:00.678Z,18.38
2022-07-25T22:13:44.945Z,18.45
2022-07-25T22:16:13.599Z,18.39
2022-07-25T22:18:43.792Z,18.33
2022-07-25T22:21:14.834Z,18.29
2022-07-25T22:23:44.622Z,18.31
2022-07-25T22:26:13.220Z,18.26
2022-07-25T22:28:41.805Z,18.29
2022-07-25T22:31:10.380Z,18.15
2022-07-25T22:33:39.131Z,18.07
2022-07-25T22:36:09.740Z,18.12
2022-07-25T22:38:38.412Z,17.94
2022-07-25T22:41:07.322Z,17.86
2022-07-25T22:43:56.541Z,17.77
2022-07-25T22:46:24.598Z,17.63
2022-07-25T22:48:53.488Z,17.56
2022-07-25T22:51:24.060Z,17.43
2022-07-25T22:53:52.640Z,17.40
2022-07-25T22:56:21.987Z,17.26
2022-07-25T22:58:50.566Z,17.23
2022-07-25T23:01:19.161Z,17.10
2022-07-25T23:03:49.862Z,16.99
2022-07-25T23:06:19.159Z,17.06
2022-07-25T23:08:49.934Z,17.12
2022-07-25T23:11:19.042Z,17.04
2022-07-25T23:13:47.883Z,16.98
2022-07-25T23:16:16.694Z,16.85
2022-07-25T23:18:45.698Z,16.93
2022-07-25T23:21:14.565Z,16.96
2022-07-25T23:23:43.227Z,16.94
2022-07-25T23:26:13.397Z,16.89
2022-07-25T23:28:42.035Z,16.92
2022-07-25T23:31:11.282Z,16.81
2022-07-25T23:33:39.940Z,16.85
2022-07-25T23:36:08.975Z,16.77
2022-07-25T23:38:37.571Z,16.71
2022-07-25T23:41:06.476Z,16.67
2022-07-25T23:43:59.291Z,16.61
2022-07-25T23:46:27.740Z,16.57
2022-07-25T23:48:58.742Z,16.58
2022-07-25T23:51:27.545Z,16.64
2022-07-25T23:53:56.157Z,16.60
2022-07-25T23:56:26.348Z,16.54
2022-07-25T23:58:56.368Z,16.52
